AirNav  
 
 970 users online  

0MI1 Lawler Heliport
Oakland, Michigan, USA

GOING TO OAKLAND?


FAA INFORMATION EFFECTIVE 25 MARCH 2021

Location

FAA Identifier: 0MI1
Lat/Long: 42-44-56.6500N 083-07-13.4700W
42-44.944167N 083-07.224500W
42.7490694,-83.1204083
(estimated)
Elevation: 940 ft. / 287 m (estimated)
From city: 4 miles SW of OAKLAND, MI
Time zone: UTC -4 (UTC -5 during Standard Time)
Zip code: 48306

Heliport Operations

Heliport use: Private use. Permission required prior to landing
Activation date: 06/2016
Control tower: no
ARTCC: CLEVELAND CENTER
FSS: LANSING FLIGHT SERVICE STATION
Attendance: 
Wind indicator: yes
Segmented circle: no

Heliport Communications

WX AWOS-3 at VLL (13 nm S): 119.475 (248-288-4649)
WX ASOS at PTK (14 nm W): 125.025 (248-886-8551)

Nearby radio navigation aids

VOR radial/distance  VOR name  Freq  Var
SVMr049/29.2SALEM VORTAC114.3003W
FNTr121/30.5FLINT VORTAC116.9006W
DXOr025/34.0DETROIT VOR/DME113.4006W

 
NDB name  Hdg/Dist  Freq  Var  ID
GROSSE ILE009/38.941907WRYS .-. -.-- ...

Heliport Services

Runway Information

Helipad H1

Dimensions: 40 x 24 ft. / 12 x 7 m
Surface: concrete
Runway edge lights: FLD
Traffic pattern: leftleft

Heliport Ownership and Management from official FAA records

Ownership: Privately-owned
Owner: DAVID M. LAWLER
885 E. GUNN
ROCHESTER, MI 48306
Phone (586) 899-4979
Manager: DAVID M. LAWLER
885 E. GUNN
ROCHESTER, MI 48306
Phone (586) 899-4979

Heliport Operational Statistics

Aircraft based on the field: 1
Helicopters: 1
    

Additional Remarks

FOR CD CTC CLEVELAND ARTCC AT 440-774-0490.

Instrument Procedures

There are no published instrument procedures at 0MI1.

Some nearby airports with instrument procedures:

D98 - Romeo State Airport (7 nm NE)
57D - Ray Community Airport (10 nm E)
KVLL - Oakland/Troy Airport (13 nm S)
KPTK - Oakland County International Airport (14 nm W)
KMTC - Selfridge Air National Guard Base (15 nm SE)
 
Loc | Ops | Rwys | IFR | FBO | Links
Com | Nav | Svcs | Stats | Notes
Aerial photo
No photo
 
Airport distance calculator
Flying to Lawler Heliport? Find the distance to fly.

From to 0MI1

Sunrise and sunset
Times for 11-Apr-2021
 Local
(UTC-4)
 Zulu
(UTC)
Morning civil twilight06:3010:30
Sunrise06:5910:59
Sunset20:0900:09
Evening civil twilight20:3800:38

Current date and time
Zulu (UTC)  11-Apr-2021 13:51:35
Local (UTC-4)  11-Apr-2021 09:51:35
 
METAR
KVLL 
13nm S 
111335Z AUTO 22006KT 10SM CLR 13/11 A2943 RMK AO2 T01260108
KPTK 
14nm W 
111327Z 21005KT 10SM SCT035 BKN044 BKN065 12/09 A2940 RMK AO2 T01170089
KMTC 
16nm SE 
111256Z 18008KT 10SM FEW050 SCT070 BKN200 13/13 A2939 RMK AO2A SLP956 T01280128
KD95 
20nm N 
111335Z AUTO 23008KT 10SM SCT028 BKN050 BKN070 13/11 A2941 RMK AO2 T01340110
KDET 
21nm S 
111341Z 24009KT 10SM SCT021 BKN028 14/10 A2942 RMK AO2 T01440100
TAF
KPTK 
14nm W 
111120Z 1112/1212 20008KT P6SM BKN100 TEMPO 1112/1114 5SM BR FM111500 18010KT P6SM BKN035 FM111800 16010KT P6SM BKN030 FM120000 13007KT P6SM OVC025 FM120300 VRB03KT 4SM BR OVC015 TEMPO 1208/1211 1SM BR OVC010
KMTC 
16nm SE 
110900Z 1109/1215 21006KT 9999 SKC QNH2934INS BECMG 1114/1115 18015G20KT 9999 SCT015 QNH2942INS BECMG 1122/1123 15015KT 8000 -SHRA BKN020 QNH2942INS BECMG 1203/1204 12009KT 9999 NSW OVC010 QNH2949INS TX14/1116Z TN10/1209Z LAST NO AMDS AFT 1109 NEXT 1111
NOTAMs
Click for the latest NOTAMs
NOTAMs are issued by the DoD/FAA and will open in a separate window not controlled by AirNav.

 

 
 

Would you like to see your business listed on this page?

 If your business provides an interesting product or service to pilots, flight crews, aircraft, or users of the Lawler Heliport, you should consider listing it here.  To start the listing process, click on the button below
 
Add a business
 

Other Pages about Lawler Heliport

Update a link
 
Copyright © AirNav, LLC. All rights reserved. Privacy Policy  Contact